Summerfield, KS (66541)

11:02 AM CDT on July 27, 2016 (GMT -0500)
Beatrice Municipal | | Change Station

Elev 1322 ft 40.30 °N, 96.75 °W | Updated 7 minutes ago

Mostly Cloudy
Mostly Cloudy
79 °F
Feels Like 79 °F
N
9
Wind Variable Wind from NNW

Today
High -- | Low -- °F
--% Chance of Precip.
Yesterday
High -- | Low -- °F
Precip. -- in
Pressure 30.04 in
Visibility 10.0 miles
Clouds Mostly Cloudy 2300 ft
Dew Point 68 °F
Humidity 70%
Rainfall 0.00 in
Snow Depth Not available.
6:19 AM 8:43 PM
Last Quarter, 42% visible
METAR KBIE 271555Z AUTO 34008KT 10SM BKN023 26/20 A3004 RMK AO2 T02590201
Pressure 30.04 in
Visibility 10.0 miles
Clouds Mostly Cloudy 2300 ft
Dew Point 68 °F
Humidity 70%
Rainfall 0.00 in
Snow Depth Not available.
6:19 AM 8:43 PM
Last Quarter, 42% visible
METAR KBIE 271555Z AUTO 34008KT 10SM BKN023 26/20 A3004 RMK AO2 T02590201

10-Day Weather Forecast

Almanac

Astronomy

Jul. 27, 2016 Rise Set
Actual Time
Civil Twilight
Nautical Twilight
Astronomical Twilight
Moon
Length of Visible Light
Length of Day
Tomorrow will be .
, % of the Moon is Illuminated

Today's Extremes

State Highs State Lows

Community

WunderPhotos

Upload Photos

1,927,877 photos uploaded!

WunderBlog® & News

Nearby

Air Quality

  Air Quality AQ Index Pollutant
Not available.

Snow Depth

Station Depth Elevation

Earthquake Activity

City Distance Mag. Time & Date
Minimum magnitude displayed is 2.5.

Coastal Water Temperatures

Place Temperature

Stations

Nearby Weather Stations

Station Location Temp. Windchill Dew Point Humidity Wind Precip. Elev Updated Type
                   

Watches & Warnings

There are currently no watches in effect.